createdAt,value
2023-03-30T14:14:50.226Z,2.70
2023-03-30T14:18:34.976Z,1.95
2023-03-30T14:21:06.083Z,1.67
2023-03-30T14:23:37.500Z,1.70
2023-03-30T14:26:13.164Z,1.40
2023-03-30T14:28:42.650Z,1.42
2023-03-30T14:33:44.186Z,1.70
2023-03-30T14:36:16.438Z,1.33
2023-03-30T14:38:47.788Z,2.15
2023-03-30T14:41:19.266Z,1.58
2023-03-30T14:43:52.976Z,1.75
2023-03-30T14:46:21.130Z,3.35
2023-03-30T14:48:50.957Z,5.40
2023-03-30T14:51:25.451Z,7.05
2023-03-30T14:53:54.275Z,2.72
2023-03-30T14:56:23.385Z,2.65
2023-03-30T14:58:53.663Z,1.65
2023-03-30T15:01:30.810Z,1.67
2023-03-30T15:04:04.655Z,2.65
2023-03-30T15:06:33.708Z,1.95
2023-03-30T15:09:03.279Z,2.22
2023-03-30T15:14:05.827Z,2.08
2023-03-30T15:16:35.837Z,2.00
2023-03-30T15:19:07.799Z,2.38
2023-03-30T15:21:38.582Z,1.65
2023-03-30T15:24:08.640Z,1.75
2023-03-30T15:26:39.984Z,1.98
2023-03-30T15:29:07.783Z,1.83
2023-03-30T15:31:35.525Z,1.60
2023-03-30T15:34:05.813Z,1.58
2023-03-30T15:36:40.291Z,2.00
2023-03-30T15:39:22.213Z,2.08
2023-03-30T15:42:00.774Z,2.13
2023-03-30T15:44:30.319Z,2.03
2023-03-30T15:49:33.297Z,1.70
2023-03-30T15:52:09.204Z,2.08
2023-03-30T15:54:40.265Z,2.67
2023-03-30T15:57:16.983Z,2.17
2023-03-30T15:59:46.824Z,2.60
2023-03-30T16:02:17.640Z,2.03
2023-03-30T16:04:45.565Z,1.50
2023-03-30T16:07:20.741Z,2.13
2023-03-30T16:09:49.382Z,1.70
2023-03-30T16:12:19.759Z,1.43
2023-03-30T16:14:49.691Z,1.85
2023-03-30T16:17:17.887Z,1.92
2023-03-30T16:19:46.269Z,1.70
2023-03-30T16:22:15.775Z,1.65
2023-03-30T16:24:44.851Z,1.80
2023-03-30T16:27:14.137Z,1.63
2023-03-30T16:29:42.372Z,1.70
2023-03-30T16:32:10.090Z,1.60
2023-03-30T16:34:37.813Z,2.10
2023-03-30T16:37:05.993Z,1.88
2023-03-30T16:39:33.796Z,1.60
2023-03-30T16:42:02.842Z,2.00
2023-03-30T16:44:31.108Z,1.98
2023-03-30T16:46:58.971Z,1.65
2023-03-30T16:49:27.129Z,2.28
2023-03-30T16:51:58.094Z,2.42
2023-03-30T16:56:57.282Z,2.28
2023-03-30T16:59:29.030Z,2.20
2023-03-30T17:01:57.784Z,1.98
2023-03-30T17:04:25.549Z,2.00
2023-03-30T17:06:54.504Z,2.05
2023-03-30T17:09:24.198Z,1.85
2023-03-30T17:11:52.184Z,1.70
2023-03-30T17:14:20.823Z,1.95
2023-03-30T17:16:50.777Z,2.65
2023-03-30T17:19:18.524Z,2.40
2023-03-30T17:21:46.385Z,2.30
2023-03-30T17:24:16.821Z,2.03
2023-03-30T17:26:44.862Z,2.10
2023-03-30T17:29:12.589Z,2.13
2023-03-30T17:31:46.047Z,2.17
2023-03-30T17:34:16.518Z,2.20
2023-03-30T17:36:44.193Z,1.95
2023-03-30T17:39:14.379Z,2.15
2023-03-30T17:41:42.337Z,2.00
2023-03-30T17:44:09.996Z,2.30
2023-03-30T17:46:38.306Z,2.85
2023-03-30T17:49:17.863Z,2.40
2023-03-30T17:54:13.457Z,2.30
2023-03-30T17:56:41.177Z,2.55
2023-03-30T17:59:11.728Z,2.10
2023-03-30T18:01:39.700Z,2.90
2023-03-30T18:04:07.780Z,2.28
2023-03-30T18:06:37.210Z,2.50
2023-03-30T18:09:05.053Z,2.40
2023-03-30T18:11:32.717Z,2.85
2023-03-30T18:14:01.098Z,2.00
2023-03-30T18:16:28.915Z,2.17
2023-03-30T18:18:58.057Z,1.65
2023-03-30T18:21:27.651Z,1.90
2023-03-30T18:23:56.923Z,2.10
2023-03-30T18:26:24.669Z,2.00
2023-03-30T18:28:52.786Z,1.90
2023-03-30T18:31:20.964Z,1.60
2023-03-30T18:33:50.410Z,1.63
2023-03-30T18:36:21.450Z,2.13
2023-03-30T18:38:50.202Z,3.17
2023-03-30T18:41:19.297Z,3.60
2023-03-30T18:43:47.234Z,5.78
2023-03-30T18:46:14.980Z,3.05
2023-03-30T18:48:42.775Z,2.15
2023-03-30T18:51:12.444Z,1.92
2023-03-30T18:56:07.800Z,3.00
2023-03-30T18:58:42.063Z,3.42
2023-03-30T19:01:11.881Z,2.70
2023-03-30T19:06:13.966Z,2.07
2023-03-30T19:08:43.331Z,2.08
2023-03-30T19:11:15.158Z,2.70
2023-03-30T19:13:44.453Z,2.33
2023-03-30T19:16:12.130Z,2.60
2023-03-30T19:18:40.130Z,2.58
2023-03-30T19:21:08.009Z,2.22
2023-03-30T19:23:36.100Z,3.00
2023-03-30T19:26:04.072Z,2.13
2023-03-30T19:28:33.229Z,2.38
2023-03-30T19:31:06.799Z,2.50
2023-03-30T19:33:34.899Z,2.22
2023-03-30T19:36:03.013Z,2.15
2023-03-30T19:38:30.946Z,2.78
2023-03-30T19:41:00.853Z,2.95
2023-03-30T19:43:28.849Z,2.28
2023-03-30T19:45:56.822Z,2.25
2023-03-30T19:48:27.223Z,2.20
2023-03-30T19:50:54.901Z,2.10
2023-03-30T19:53:22.766Z,2.33
2023-03-30T19:55:50.507Z,2.45
2023-03-30T19:58:18.176Z,2.83
2023-03-30T20:00:49.610Z,2.50
2023-03-30T20:03:17.543Z,2.40
2023-03-30T20:05:50.595Z,2.17
2023-03-30T20:08:24.579Z,2.80
2023-03-30T20:10:53.279Z,2.58
2023-03-30T20:13:23.851Z,2.55
2023-03-30T20:15:56.276Z,2.70
2023-03-30T20:18:24.095Z,2.47
2023-03-30T20:20:53.621Z,2.50
2023-03-30T20:23:21.643Z,2.83
2023-03-30T20:25:50.509Z,3.22
2023-03-30T20:28:18.443Z,2.88
2023-03-30T20:30:46.320Z,3.60
2023-03-30T20:33:14.237Z,4.40
2023-03-30T20:35:43.033Z,4.13
2023-03-30T20:38:12.358Z,3.72
2023-03-30T20:40:40.000Z,5.13
2023-03-30T20:43:10.086Z,5.05
2023-03-30T20:45:46.277Z,4.80
2023-03-30T20:48:26.936Z,4.88
2023-03-30T20:50:56.117Z,4.97
2023-03-30T20:53:25.828Z,5.40
2023-03-30T20:58:22.633Z,5.90
2023-03-30T21:00:51.891Z,5.53
2023-03-30T21:03:20.277Z,4.90
2023-03-30T21:05:48.571Z,4.65
2023-03-30T21:08:16.610Z,5.10
2023-03-30T21:10:45.772Z,4.63
2023-03-30T21:13:15.203Z,4.68
2023-03-30T21:15:42.938Z,4.93
2023-03-30T21:18:10.816Z,4.82
2023-03-30T21:20:38.815Z,4.82
2023-03-30T21:23:06.873Z,4.07
2023-03-30T21:25:34.574Z,3.75
2023-03-30T21:28:04.217Z,3.63
2023-03-30T21:33:01.272Z,2.72
2023-03-30T21:35:30.125Z,2.70
2023-03-30T21:37:57.806Z,2.70
2023-03-30T21:40:25.546Z,2.30
2023-03-30T21:42:53.779Z,2.20
2023-03-30T21:45:22.928Z,2.13
2023-03-30T21:47:50.795Z,2.50
2023-03-30T21:50:19.241Z,2.42
2023-03-30T21:52:47.285Z,2.33
2023-03-30T21:55:15.236Z,1.88
2023-03-30T21:57:43.452Z,2.10
2023-03-30T22:00:12.941Z,2.25
2023-03-30T22:02:42.125Z,2.08
2023-03-30T22:05:10.350Z,1.80
2023-03-30T22:07:38.061Z,2.00
2023-03-30T22:10:06.751Z,2.00
2023-03-30T22:12:35.035Z,1.83
2023-03-30T22:15:02.802Z,2.08
2023-03-30T22:17:35.642Z,1.95
2023-03-30T22:20:06.971Z,1.75
2023-03-30T22:22:34.668Z,2.33
2023-03-30T22:25:02.821Z,1.92
2023-03-30T22:27:30.608Z,2.08
2023-03-30T22:29:59.284Z,1.83
2023-03-30T22:32:27.556Z,1.80
2023-03-30T22:34:55.323Z,1.77
2023-03-30T22:37:26.002Z,1.98
2023-03-30T22:39:54.247Z,2.08
2023-03-30T22:42:22.531Z,2.35
2023-03-30T22:44:50.629Z,2.25
2023-03-30T22:47:18.865Z,2.20
2023-03-30T22:49:47.227Z,1.88
2023-03-30T22:52:14.920Z,2.08
2023-03-30T22:54:44.649Z,2.53
2023-03-30T22:57:12.462Z,2.25
2023-03-30T22:59:40.199Z,2.22
2023-03-30T23:02:08.467Z,2.25
2023-03-30T23:04:36.224Z,2.13
2023-03-30T23:07:04.536Z,2.55
2023-03-30T23:09:34.090Z,2.40
2023-03-30T23:12:04.513Z,2.55
2023-03-30T23:14:32.295Z,2.33
2023-03-30T23:17:00.614Z,2.72
2023-03-30T23:19:29.288Z,2.90
2023-03-30T23:21:57.541Z,2.53
2023-03-30T23:24:25.971Z,3.15
2023-03-30T23:26:53.942Z,2.72
2023-03-30T23:29:22.981Z,2.47
2023-03-30T23:31:52.518Z,2.45
2023-03-30T23:36:49.587Z,2.97
2023-03-30T23:39:18.243Z,2.80
2023-03-30T23:41:46.240Z,2.80
2023-03-30T23:44:13.906Z,2.70
2023-03-30T23:46:43.510Z,2.70
2023-03-30T23:51:38.967Z,3.30
2023-03-30T23:54:07.628Z,2.72
2023-03-30T23:56:35.997Z,3.77
2023-03-30T23:59:04.450Z,3.38
